sensor_id;sensor_type;location;lat;lon;timestamp;P1;durP1;ratioP1;P2;durP2;ratioP2
66927;SDS011;59882;45.624;11.698;2022-08-19T00:02:05;8.63;;;1.97;;
66927;SDS011;59882;45.624;11.698;2022-08-19T00:04:33;10.77;;;2.60;;
66927;SDS011;59882;45.624;11.698;2022-08-19T00:07:01;9.43;;;2.03;;
66927;SDS011;59882;45.624;11.698;2022-08-19T00:09:29;7.20;;;1.50;;
66927;SDS011;59882;45.624;11.698;2022-08-19T00:11:55;10.32;;;2.20;;
66927;SDS011;59882;45.624;11.698;2022-08-19T00:14:22;10.73;;;2.55;;
66927;SDS011;59882;45.624;11.698;2022-08-19T00:16:49;10.43;;;2.57;;
66927;SDS011;59882;45.624;11.698;2022-08-19T00:19:19;10.10;;;2.33;;
66927;SDS011;59882;45.624;11.698;2022-08-19T00:21:46;8.88;;;2.30;;
66927;SDS011;59882;45.624;11.698;2022-08-19T00:24:13;11.38;;;2.80;;
66927;SDS011;59882;45.624;11.698;2022-08-19T00:26:40;11.80;;;2.88;;
66927;SDS011;59882;45.624;11.698;2022-08-19T00:29:07;8.40;;;2.37;;
66927;SDS011;59882;45.624;11.698;2022-08-19T00:31:34;7.25;;;2.20;;
66927;SDS011;59882;45.624;11.698;2022-08-19T00:34:00;9.35;;;1.88;;
66927;SDS011;59882;45.624;11.698;2022-08-19T00:36:26;11.43;;;3.00;;
66927;SDS011;59882;45.624;11.698;2022-08-19T00:38:53;13.98;;;2.97;;
66927;SDS011;59882;45.624;11.698;2022-08-19T00:41:20;7.35;;;2.58;;
66927;SDS011;59882;45.624;11.698;2022-08-19T00:46:26;13.98;;;4.10;;
66927;SDS011;59882;45.624;11.698;2022-08-19T00:48:52;12.17;;;3.10;;
66927;SDS011;59882;45.624;11.698;2022-08-19T00:51:19;15.07;;;3.00;;
66927;SDS011;59882;45.624;11.698;2022-08-19T00:53:45;9.38;;;3.33;;
66927;SDS011;59882;45.624;11.698;2022-08-19T00:56:10;13.37;;;3.17;;
66927;SDS011;59882;45.624;11.698;2022-08-19T00:58:36;11.85;;;3.10;;
66927;SDS011;59882;45.624;11.698;2022-08-19T01:01:03;12.17;;;2.90;;
66927;SDS011;59882;45.624;11.698;2022-08-19T01:03:29;10.52;;;3.17;;
66927;SDS011;59882;45.624;11.698;2022-08-19T01:05:55;11.38;;;2.72;;
66927;SDS011;59882;45.624;11.698;2022-08-19T01:08:21;11.27;;;3.50;;
66927;SDS011;59882;45.624;11.698;2022-08-19T01:10:52;15.25;;;3.10;;
66927;SDS011;59882;45.624;11.698;2022-08-19T01:13:20;12.50;;;2.90;;
66927;SDS011;59882;45.624;11.698;2022-08-19T01:15:50;9.32;;;3.25;;
66927;SDS011;59882;45.624;11.698;2022-08-19T01:18:19;9.13;;;2.67;;
66927;SDS011;59882;45.624;11.698;2022-08-19T01:20:46;12.55;;;3.03;;
66927;SDS011;59882;45.624;11.698;2022-08-19T01:23:12;8.70;;;2.75;;
66927;SDS011;59882;45.624;11.698;2022-08-19T01:25:44;11.48;;;2.88;;
66927;SDS011;59882;45.624;11.698;2022-08-19T01:28:24;9.37;;;2.53;;
66927;SDS011;59882;45.624;11.698;2022-08-19T01:30:52;10.77;;;2.60;;
66927;SDS011;59882;45.624;11.698;2022-08-19T01:33:19;11.27;;;2.63;;
66927;SDS011;59882;45.624;11.698;2022-08-19T01:35:45;9.55;;;2.30;;
66927;SDS011;59882;45.624;11.698;2022-08-19T01:38:21;12.40;;;2.43;;
66927;SDS011;59882;45.624;11.698;2022-08-19T01:40:51;11.55;;;2.08;;
66927;SDS011;59882;45.624;11.698;2022-08-19T01:43:17;11.07;;;2.35;;
66927;SDS011;59882;45.624;11.698;2022-08-19T01:45:44;6.93;;;2.00;;
66927;SDS011;59882;45.624;11.698;2022-08-19T01:48:10;10.40;;;1.95;;
66927;SDS011;59882;45.624;11.698;2022-08-19T01:50:36;11.37;;;2.40;;
66927;SDS011;59882;45.624;11.698;2022-08-19T01:53:03;12.68;;;2.33;;
66927;SDS011;59882;45.624;11.698;2022-08-19T01:55:32;9.88;;;2.15;;
66927;SDS011;59882;45.624;11.698;2022-08-19T01:58:00;9.98;;;2.30;;
66927;SDS011;59882;45.624;11.698;2022-08-19T02:00:30;9.67;;;2.03;;
66927;SDS011;59882;45.624;11.698;2022-08-19T02:02:56;10.73;;;2.00;;
66927;SDS011;59882;45.624;11.698;2022-08-19T02:05:22;13.02;;;2.70;;
66927;SDS011;59882;45.624;11.698;2022-08-19T02:07:49;9.32;;;2.22;;
66927;SDS011;59882;45.624;11.698;2022-08-19T02:10:16;9.60;;;2.43;;
66927;SDS011;59882;45.624;11.698;2022-08-19T02:12:46;11.05;;;2.58;;
66927;SDS011;59882;45.624;11.698;2022-08-19T02:15:14;13.65;;;2.65;;
66927;SDS011;59882;45.624;11.698;2022-08-19T02:17:40;11.03;;;2.37;;
66927;SDS011;59882;45.624;11.698;2022-08-19T02:20:07;9.20;;;2.22;;
66927;SDS011;59882;45.624;11.698;2022-08-19T02:22:33;10.35;;;2.92;;
66927;SDS011;59882;45.624;11.698;2022-08-19T02:25:00;11.30;;;2.10;;
66927;SDS011;59882;45.624;11.698;2022-08-19T02:27:26;11.15;;;2.33;;
66927;SDS011;59882;45.624;11.698;2022-08-19T02:29:52;10.20;;;2.53;;
66927;SDS011;59882;45.624;11.698;2022-08-19T02:32:18;11.35;;;2.60;;
66927;SDS011;59882;45.624;11.698;2022-08-19T02:34:44;8.90;;;1.98;;
66927;SDS011;59882;45.624;11.698;2022-08-19T02:37:11;8.50;;;1.80;;
66927;SDS011;59882;45.624;11.698;2022-08-19T02:39:57;11.52;;;2.47;;
66927;SDS011;59882;45.624;11.698;2022-08-19T02:42:23;12.15;;;2.50;;
66927;SDS011;59882;45.624;11.698;2022-08-19T02:44:49;9.23;;;2.22;;
66927;SDS011;59882;45.624;11.698;2022-08-19T02:47:16;11.95;;;2.90;;
66927;SDS011;59882;45.624;11.698;2022-08-19T02:49:43;9.27;;;2.97;;
66927;SDS011;59882;45.624;11.698;2022-08-19T02:52:10;10.40;;;2.58;;
66927;SDS011;59882;45.624;11.698;2022-08-19T02:54:36;11.10;;;2.75;;
66927;SDS011;59882;45.624;11.698;2022-08-19T02:57:03;14.77;;;3.17;;
66927;SDS011;59882;45.624;11.698;2022-08-19T02:59:30;11.55;;;3.03;;
66927;SDS011;59882;45.624;11.698;2022-08-19T03:01:55;10.13;;;3.33;;
66927;SDS011;59882;45.624;11.698;2022-08-19T03:04:21;14.15;;;2.65;;
66927;SDS011;59882;45.624;11.698;2022-08-19T03:06:48;11.32;;;2.90;;
66927;SDS011;59882;45.624;11.698;2022-08-19T03:09:14;9.73;;;2.17;;
66927;SDS011;59882;45.624;11.698;2022-08-19T03:11:40;10.00;;;1.85;;
66927;SDS011;59882;45.624;11.698;2022-08-19T03:14:06;10.80;;;2.40;;
66927;SDS011;59882;45.624;11.698;2022-08-19T03:16:34;8.30;;;2.25;;
66927;SDS011;59882;45.624;11.698;2022-08-19T03:19:05;9.93;;;1.83;;
66927;SDS011;59882;45.624;11.698;2022-08-19T03:21:31;8.30;;;1.70;;
66927;SDS011;59882;45.624;11.698;2022-08-19T03:24:00;8.75;;;1.85;;
66927;SDS011;59882;45.624;11.698;2022-08-19T03:26:28;8.83;;;1.50;;
66927;SDS011;59882;45.624;11.698;2022-08-19T03:28:54;7.13;;;1.40;;
66927;SDS011;59882;45.624;11.698;2022-08-19T03:31:21;13.63;;;1.42;;
66927;SDS011;59882;45.624;11.698;2022-08-19T03:33:48;9.60;;;1.65;;
66927;SDS011;59882;45.624;11.698;2022-08-19T03:36:17;8.18;;;1.23;;
66927;SDS011;59882;45.624;11.698;2022-08-19T03:38:49;7.53;;;1.37;;
66927;SDS011;59882;45.624;11.698;2022-08-19T03:41:21;9.52;;;1.90;;
66927;SDS011;59882;45.624;11.698;2022-08-19T03:43:49;7.20;;;1.50;;
66927;SDS011;59882;45.624;11.698;2022-08-19T03:46:16;5.43;;;1.20;;
66927;SDS011;59882;45.624;11.698;2022-08-19T03:48:47;6.30;;;1.17;;
66927;SDS011;59882;45.624;11.698;2022-08-19T03:51:19;6.27;;;1.40;;
66927;SDS011;59882;45.624;11.698;2022-08-19T03:53:50;8.35;;;1.50;;
66927;SDS011;59882;45.624;11.698;2022-08-19T03:56:17;8.98;;;2.08;;
66927;SDS011;59882;45.624;11.698;2022-08-19T03:58:44;9.50;;;1.50;;
66927;SDS011;59882;45.624;11.698;2022-08-19T04:01:13;8.57;;;1.42;;
66927;SDS011;59882;45.624;11.698;2022-08-19T04:03:42;8.40;;;1.63;;
66927;SDS011;59882;45.624;11.698;2022-08-19T04:08:40;6.90;;;1.20;;
66927;SDS011;59882;45.624;11.698;2022-08-19T04:11:10;11.27;;;1.45;;
66927;SDS011;59882;45.624;11.698;2022-08-19T04:13:38;10.38;;;1.42;;
66927;SDS011;59882;45.624;11.698;2022-08-19T04:16:04;9.70;;;1.30;;
66927;SDS011;59882;45.624;11.698;2022-08-19T04:18:32;10.95;;;1.33;;
66927;SDS011;59882;45.624;11.698;2022-08-19T04:20:58;5.80;;;1.35;;
66927;SDS011;59882;45.624;11.698;2022-08-19T04:23:25;11.27;;;1.90;;
66927;SDS011;59882;45.624;11.698;2022-08-19T04:25:53;8.70;;;2.33;;
66927;SDS011;59882;45.624;11.698;2022-08-19T04:28:19;10.20;;;2.30;;
66927;SDS011;59882;45.624;11.698;2022-08-19T04:30:46;5.47;;;1.35;;
66927;SDS011;59882;45.624;11.698;2022-08-19T04:33:14;6.00;;;1.65;;
66927;SDS011;59882;45.624;11.698;2022-08-19T04:35:45;7.67;;;1.40;;
66927;SDS011;59882;45.624;11.698;2022-08-19T04:38:13;6.63;;;1.20;;
66927;SDS011;59882;45.624;11.698;2022-08-19T04:40:41;6.80;;;1.15;;
66927;SDS011;59882;45.624;11.698;2022-08-19T04:43:27;8.68;;;1.48;;
66927;SDS011;59882;45.624;11.698;2022-08-19T04:45:53;9.75;;;2.03;;
66927;SDS011;59882;45.624;11.698;2022-08-19T04:48:19;9.00;;;2.03;;
66927;SDS011;59882;45.624;11.698;2022-08-19T04:50:50;10.00;;;1.50;;
66927;SDS011;59882;45.624;11.698;2022-08-19T04:53:32;10.43;;;2.17;;
66927;SDS011;59882;45.624;11.698;2022-08-19T04:55:59;9.50;;;2.13;;
66927;SDS011;59882;45.624;11.698;2022-08-19T04:58:31;7.30;;;2.38;;
66927;SDS011;59882;45.624;11.698;2022-08-19T05:00:58;8.30;;;2.17;;
66927;SDS011;59882;45.624;11.698;2022-08-19T05:03:25;8.55;;;2.10;;
66927;SDS011;59882;45.624;11.698;2022-08-19T05:05:51;7.60;;;2.53;;
66927;SDS011;59882;45.624;11.698;2022-08-19T05:08:19;10.13;;;2.80;;
66927;SDS011;59882;45.624;11.698;2022-08-19T05:10:47;11.73;;;3.15;;
66927;SDS011;59882;45.624;11.698;2022-08-19T05:13:15;14.57;;;3.30;;
66927;SDS011;59882;45.624;11.698;2022-08-19T05:15:43;10.50;;;3.40;;
66927;SDS011;59882;45.624;11.698;2022-08-19T05:18:09;11.55;;;3.42;;
66927;SDS011;59882;45.624;11.698;2022-08-19T05:20:53;10.50;;;3.20;;
66927;SDS011;59882;45.624;11.698;2022-08-19T05:23:37;9.43;;;3.63;;
66927;SDS011;59882;45.624;11.698;2022-08-19T05:26:03;8.87;;;3.40;;
66927;SDS011;59882;45.624;11.698;2022-08-19T05:28:29;9.38;;;3.88;;
66927;SDS011;59882;45.624;11.698;2022-08-19T05:30:54;14.00;;;3.23;;
66927;SDS011;59882;45.624;11.698;2022-08-19T05:33:20;12.45;;;3.38;;
66927;SDS011;59882;45.624;11.698;2022-08-19T05:35:47;8.90;;;2.85;;
66927;SDS011;59882;45.624;11.698;2022-08-19T05:38:14;8.40;;;2.83;;
66927;SDS011;59882;45.624;11.698;2022-08-19T05:40:43;10.98;;;3.33;;
66927;SDS011;59882;45.624;11.698;2022-08-19T05:43:12;11.00;;;3.85;;
66927;SDS011;59882;45.624;11.698;2022-08-19T05:45:40;9.60;;;3.90;;
66927;SDS011;59882;45.624;11.698;2022-08-19T05:48:07;11.27;;;3.70;;
66927;SDS011;59882;45.624;11.698;2022-08-19T05:50:36;11.27;;;4.17;;
66927;SDS011;59882;45.624;11.698;2022-08-19T05:53:03;11.05;;;3.90;;
66927;SDS011;59882;45.624;11.698;2022-08-19T05:55:29;12.07;;;3.40;;
66927;SDS011;59882;45.624;11.698;2022-08-19T05:57:55;11.98;;;3.38;;
66927;SDS011;59882;45.624;11.698;2022-08-19T06:00:20;9.43;;;3.37;;
66927;SDS011;59882;45.624;11.698;2022-08-19T06:02:46;9.05;;;2.78;;
66927;SDS011;59882;45.624;11.698;2022-08-19T06:05:12;11.70;;;3.00;;
66927;SDS011;59882;45.624;11.698;2022-08-19T06:07:38;10.93;;;2.80;;
66927;SDS011;59882;45.624;11.698;2022-08-19T06:10:04;10.32;;;3.42;;
66927;SDS011;59882;45.624;11.698;2022-08-19T06:12:32;10.95;;;2.33;;
66927;SDS011;59882;45.624;11.698;2022-08-19T06:15:06;10.27;;;2.80;;
66927;SDS011;59882;45.624;11.698;2022-08-19T06:17:34;7.80;;;2.38;;
66927;SDS011;59882;45.624;11.698;2022-08-19T06:20:00;9.93;;;2.20;;
66927;SDS011;59882;45.624;11.698;2022-08-19T06:22:27;12.48;;;2.78;;
66927;SDS011;59882;45.624;11.698;2022-08-19T06:24:54;9.93;;;3.40;;
66927;SDS011;59882;45.624;11.698;2022-08-19T06:27:20;11.33;;;3.20;;
66927;SDS011;59882;45.624;11.698;2022-08-19T06:29:46;11.05;;;2.95;;
66927;SDS011;59882;45.624;11.698;2022-08-19T06:32:12;7.47;;;3.20;;
66927;SDS011;59882;45.624;11.698;2022-08-19T06:34:41;7.70;;;2.50;;
66927;SDS011;59882;45.624;11.698;2022-08-19T06:37:07;9.77;;;2.88;;
66927;SDS011;59882;45.624;11.698;2022-08-19T06:39:35;10.70;;;3.45;;
66927;SDS011;59882;45.624;11.698;2022-08-19T06:42:03;9.30;;;2.65;;
66927;SDS011;59882;45.624;11.698;2022-08-19T06:44:33;7.45;;;2.47;;
66927;SDS011;59882;45.624;11.698;2022-08-19T06:47:05;10.47;;;2.57;;
66927;SDS011;59882;45.624;11.698;2022-08-19T06:49:33;10.48;;;2.67;;
66927;SDS011;59882;45.624;11.698;2022-08-19T06:51:59;10.63;;;2.75;;
66927;SDS011;59882;45.624;11.698;2022-08-19T06:54:26;9.73;;;2.70;;
66927;SDS011;59882;45.624;11.698;2022-08-19T06:56:53;11.38;;;2.90;;
66927;SDS011;59882;45.624;11.698;2022-08-19T06:59:20;7.90;;;2.30;;
66927;SDS011;59882;45.624;11.698;2022-08-19T07:01:50;10.00;;;2.55;;
66927;SDS011;59882;45.624;11.698;2022-08-19T07:04:19;11.70;;;2.78;;
66927;SDS011;59882;45.624;11.698;2022-08-19T07:06:47;9.45;;;2.88;;
66927;SDS011;59882;45.624;11.698;2022-08-19T07:09:14;9.02;;;2.85;;
66927;SDS011;59882;45.624;11.698;2022-08-19T07:11:45;7.57;;;2.20;;
66927;SDS011;59882;45.624;11.698;2022-08-19T07:14:12;8.57;;;2.67;;
66927;SDS011;59882;45.624;11.698;2022-08-19T07:16:39;10.18;;;2.75;;
66927;SDS011;59882;45.624;11.698;2022-08-19T07:19:04;8.23;;;2.33;;
66927;SDS011;59882;45.624;11.698;2022-08-19T07:21:30;7.70;;;2.35;;
66927;SDS011;59882;45.624;11.698;2022-08-19T07:23:56;8.33;;;2.23;;
66927;SDS011;59882;45.624;11.698;2022-08-19T07:26:25;8.80;;;2.08;;
66927;SDS011;59882;45.624;11.698;2022-08-19T07:28:55;9.50;;;2.53;;
66927;SDS011;59882;45.624;11.698;2022-08-19T07:31:23;7.38;;;1.83;;
66927;SDS011;59882;45.624;11.698;2022-08-19T07:33:51;11.60;;;2.50;;
66927;SDS011;59882;45.624;11.698;2022-08-19T07:36:21;9.77;;;2.43;;
66927;SDS011;59882;45.624;11.698;2022-08-19T07:38:49;11.18;;;2.70;;
66927;SDS011;59882;45.624;11.698;2022-08-19T07:41:18;9.98;;;2.90;;
66927;SDS011;59882;45.624;11.698;2022-08-19T07:43:46;10.52;;;2.45;;
66927;SDS011;59882;45.624;11.698;2022-08-19T07:46:13;8.75;;;2.55;;
66927;SDS011;59882;45.624;11.698;2022-08-19T07:48:40;8.23;;;2.17;;
66927;SDS011;59882;45.624;11.698;2022-08-19T07:51:08;8.18;;;2.75;;
66927;SDS011;59882;45.624;11.698;2022-08-19T07:53:35;9.90;;;2.55;;
66927;SDS011;59882;45.624;11.698;2022-08-19T07:56:02;11.05;;;3.30;;
66927;SDS011;59882;45.624;11.698;2022-08-19T07:58:29;10.50;;;3.25;;
66927;SDS011;59882;45.624;11.698;2022-08-19T08:00:58;9.63;;;2.67;;
66927;SDS011;59882;45.624;11.698;2022-08-19T08:03:24;5.75;;;1.77;;
66927;SDS011;59882;45.624;11.698;2022-08-19T08:06:10;6.90;;;2.05;;
66927;SDS011;59882;45.624;11.698;2022-08-19T08:08:56;8.93;;;2.28;;
66927;SDS011;59882;45.624;11.698;2022-08-19T08:11:41;8.07;;;2.40;;
66927;SDS011;59882;45.624;11.698;2022-08-19T08:14:13;9.63;;;2.20;;
66927;SDS011;59882;45.624;11.698;2022-08-19T08:16:40;8.68;;;2.53;;
66927;SDS011;59882;45.624;11.698;2022-08-19T08:19:09;7.78;;;2.47;;
66927;SDS011;59882;45.624;11.698;2022-08-19T08:21:35;9.20;;;2.47;;
66927;SDS011;59882;45.624;11.698;2022-08-19T08:24:00;7.57;;;2.67;;
66927;SDS011;59882;45.624;11.698;2022-08-19T08:26:26;9.02;;;3.00;;
66927;SDS011;59882;45.624;11.698;2022-08-19T08:28:52;11.10;;;3.10;;
66927;SDS011;59882;45.624;11.698;2022-08-19T08:31:18;6.90;;;2.80;;
66927;SDS011;59882;45.624;11.698;2022-08-19T08:33:45;9.57;;;2.97;;
66927;SDS011;59882;45.624;11.698;2022-08-19T08:36:12;8.98;;;2.83;;
66927;SDS011;59882;45.624;11.698;2022-08-19T08:38:39;10.23;;;2.77;;
66927;SDS011;59882;45.624;11.698;2022-08-19T08:41:17;9.65;;;2.58;;
66927;SDS011;59882;45.624;11.698;2022-08-19T08:43:47;11.20;;;2.78;;
66927;SDS011;59882;45.624;11.698;2022-08-19T08:48:52;7.78;;;2.53;;
66927;SDS011;59882;45.624;11.698;2022-08-19T08:51:23;7.13;;;2.40;;
66927;SDS011;59882;45.624;11.698;2022-08-19T08:53:53;11.27;;;2.58;;
66927;SDS011;59882;45.624;11.698;2022-08-19T08:56:20;9.07;;;2.53;;
66927;SDS011;59882;45.624;11.698;2022-08-19T08:59:00;8.30;;;2.08;;
66927;SDS011;59882;45.624;11.698;2022-08-19T09:01:35;7.90;;;1.60;;
66927;SDS011;59882;45.624;11.698;2022-08-19T09:04:02;10.53;;;1.73;;
66927;SDS011;59882;45.624;11.698;2022-08-19T09:06:39;6.40;;;1.80;;
66927;SDS011;59882;45.624;11.698;2022-08-19T09:09:14;8.63;;;1.55;;
66927;SDS011;59882;45.624;11.698;2022-08-19T09:15:14;7.20;;;1.30;;
66927;SDS011;59882;45.624;11.698;2022-08-19T09:17:43;8.60;;;1.63;;
66927;SDS011;59882;45.624;11.698;2022-08-19T09:22:36;8.77;;;2.10;;
66927;SDS011;59882;45.624;11.698;2022-08-19T09:25:03;6.35;;;1.95;;
66927;SDS011;59882;45.624;11.698;2022-08-19T09:27:30;9.45;;;1.58;;
66927;SDS011;59882;45.624;11.698;2022-08-19T09:29:57;10.10;;;2.30;;
66927;SDS011;59882;45.624;11.698;2022-08-19T09:32:23;9.75;;;1.60;;
66927;SDS011;59882;45.624;11.698;2022-08-19T09:34:52;7.30;;;1.45;;
66927;SDS011;59882;45.624;11.698;2022-08-19T09:37:23;7.63;;;1.30;;
66927;SDS011;59882;45.624;11.698;2022-08-19T09:39:49;6.28;;;1.25;;
66927;SDS011;59882;45.624;11.698;2022-08-19T09:42:16;6.70;;;1.40;;
66927;SDS011;59882;45.624;11.698;2022-08-19T09:44:42;7.72;;;1.38;;
66927;SDS011;59882;45.624;11.698;2022-08-19T09:47:09;10.10;;;1.52;;
66927;SDS011;59882;45.624;11.698;2022-08-19T09:49:36;7.63;;;1.30;;
66927;SDS011;59882;45.624;11.698;2022-08-19T09:52:04;7.35;;;1.23;;
66927;SDS011;59882;45.624;11.698;2022-08-19T09:54:30;5.40;;;1.47;;
66927;SDS011;59882;45.624;11.698;2022-08-19T09:56:57;5.45;;;1.23;;
66927;SDS011;59882;45.624;11.698;2022-08-19T09:59:25;6.10;;;1.05;;
66927;SDS011;59882;45.624;11.698;2022-08-19T10:01:51;5.63;;;1.40;;
66927;SDS011;59882;45.624;11.698;2022-08-19T10:04:17;7.13;;;1.30;;
66927;SDS011;59882;45.624;11.698;2022-08-19T10:06:43;5.07;;;1.08;;
66927;SDS011;59882;45.624;11.698;2022-08-19T10:09:09;7.60;;;1.70;;
66927;SDS011;59882;45.624;11.698;2022-08-19T10:11:36;7.25;;;1.38;;
66927;SDS011;59882;45.624;11.698;2022-08-19T10:14:04;11.52;;;1.70;;
66927;SDS011;59882;45.624;11.698;2022-08-19T10:16:33;6.80;;;1.50;;
66927;SDS011;59882;45.624;11.698;2022-08-19T10:19:01;6.90;;;1.40;;
66927;SDS011;59882;45.624;11.698;2022-08-19T10:21:28;7.10;;;1.90;;
66927;SDS011;59882;45.624;11.698;2022-08-19T10:23:56;6.07;;;1.90;;
66927;SDS011;59882;45.624;11.698;2022-08-19T10:26:25;7.40;;;2.15;;
66927;SDS011;59882;45.624;11.698;2022-08-19T10:28:52;5.10;;;1.60;;
66927;SDS011;59882;45.624;11.698;2022-08-19T10:31:20;8.33;;;1.60;;
66927;SDS011;59882;45.624;11.698;2022-08-19T10:33:49;7.78;;;1.63;;
66927;SDS011;59882;45.624;11.698;2022-08-19T10:36:22;8.00;;;2.30;;
66927;SDS011;59882;45.624;11.698;2022-08-19T10:38:54;7.50;;;1.67;;
66927;SDS011;59882;45.624;11.698;2022-08-19T10:41:24;7.00;;;1.77;;
66927;SDS011;59882;45.624;11.698;2022-08-19T10:43:56;7.27;;;1.87;;
66927;SDS011;59882;45.624;11.698;2022-08-19T10:46:23;6.40;;;2.22;;
66927;SDS011;59882;45.624;11.698;2022-08-19T10:48:52;7.68;;;2.40;;
66927;SDS011;59882;45.624;11.698;2022-08-19T10:51:19;8.75;;;2.75;;
66927;SDS011;59882;45.624;11.698;2022-08-19T10:54:04;8.52;;;2.15;;
66927;SDS011;59882;45.624;11.698;2022-08-19T10:56:30;6.87;;;2.60;;
66927;SDS011;59882;45.624;11.698;2022-08-19T10:59:15;5.25;;;2.53;;
66927;SDS011;59882;45.624;11.698;2022-08-19T11:01:42;7.57;;;2.60;;
66927;SDS011;59882;45.624;11.698;2022-08-19T11:04:09;5.47;;;1.60;;
66927;SDS011;59882;45.624;11.698;2022-08-19T11:06:36;11.83;;;2.10;;
66927;SDS011;59882;45.624;11.698;2022-08-19T11:09:03;5.78;;;1.75;;
66927;SDS011;59882;45.624;11.698;2022-08-19T11:11:30;7.13;;;1.70;;
66927;SDS011;59882;45.624;11.698;2022-08-19T11:13:57;8.73;;;2.17;;
66927;SDS011;59882;45.624;11.698;2022-08-19T11:16:23;8.10;;;2.33;;
66927;SDS011;59882;45.624;11.698;2022-08-19T11:18:51;6.70;;;2.40;;
66927;SDS011;59882;45.624;11.698;2022-08-19T11:21:20;6.80;;;2.13;;
66927;SDS011;59882;45.624;11.698;2022-08-19T11:23:49;8.10;;;1.83;;
66927;SDS011;59882;45.624;11.698;2022-08-19T11:26:17;6.60;;;1.58;;
66927;SDS011;59882;45.624;11.698;2022-08-19T11:28:44;6.07;;;1.60;;
66927;SDS011;59882;45.624;11.698;2022-08-19T11:31:11;6.73;;;1.37;;
66927;SDS011;59882;45.624;11.698;2022-08-19T11:33:38;7.00;;;1.65;;
66927;SDS011;59882;45.624;11.698;2022-08-19T11:36:04;7.25;;;1.52;;
66927;SDS011;59882;45.624;11.698;2022-08-19T11:38:30;6.30;;;1.50;;
66927;SDS011;59882;45.624;11.698;2022-08-19T11:40:57;7.23;;;1.70;;
66927;SDS011;59882;45.624;11.698;2022-08-19T11:43:24;6.00;;;1.48;;
66927;SDS011;59882;45.624;11.698;2022-08-19T11:45:51;5.05;;;1.45;;
66927;SDS011;59882;45.624;11.698;2022-08-19T11:48:21;5.85;;;1.50;;
66927;SDS011;59882;45.624;11.698;2022-08-19T11:50:50;4.37;;;1.23;;
66927;SDS011;59882;45.624;11.698;2022-08-19T11:53:19;5.25;;;1.55;;
66927;SDS011;59882;45.624;11.698;2022-08-19T11:55:45;6.93;;;1.70;;
66927;SDS011;59882;45.624;11.698;2022-08-19T11:58:12;9.02;;;1.75;;
66927;SDS011;59882;45.624;11.698;2022-08-19T12:00:40;6.18;;;1.73;;
66927;SDS011;59882;45.624;11.698;2022-08-19T12:03:06;5.00;;;1.57;;
66927;SDS011;59882;45.624;11.698;2022-08-19T12:05:33;4.22;;;1.33;;
66927;SDS011;59882;45.624;11.698;2022-08-19T12:08:00;3.97;;;1.23;;
66927;SDS011;59882;45.624;11.698;2022-08-19T12:10:26;6.00;;;1.60;;
66927;SDS011;59882;45.624;11.698;2022-08-19T12:12:52;6.37;;;1.60;;
66927;SDS011;59882;45.624;11.698;2022-08-19T12:15:17;6.20;;;1.13;;
66927;SDS011;59882;45.624;11.698;2022-08-19T12:17:43;6.75;;;1.23;;
66927;SDS011;59882;45.624;11.698;2022-08-19T12:20:09;6.57;;;1.33;;
66927;SDS011;59882;45.624;11.698;2022-08-19T12:22:37;5.55;;;1.20;;
66927;SDS011;59882;45.624;11.698;2022-08-19T12:25:03;4.07;;;0.73;;
66927;SDS011;59882;45.624;11.698;2022-08-19T12:27:30;3.97;;;0.88;;
66927;SDS011;59882;45.624;11.698;2022-08-19T12:29:55;4.33;;;1.00;;
66927;SDS011;59882;45.624;11.698;2022-08-19T12:32:22;6.20;;;1.20;;
66927;SDS011;59882;45.624;11.698;2022-08-19T12:34:48;4.35;;;0.98;;
66927;SDS011;59882;45.624;11.698;2022-08-19T12:37:14;4.77;;;1.13;;
66927;SDS011;59882;45.624;11.698;2022-08-19T12:39:40;7.38;;;1.30;;
66927;SDS011;59882;45.624;11.698;2022-08-19T12:42:07;4.63;;;1.10;;
66927;SDS011;59882;45.624;11.698;2022-08-19T12:44:35;6.63;;;1.08;;
66927;SDS011;59882;45.624;11.698;2022-08-19T12:47:01;4.78;;;1.10;;
66927;SDS011;59882;45.624;11.698;2022-08-19T12:49:29;3.25;;;0.93;;
66927;SDS011;59882;45.624;11.698;2022-08-19T12:51:56;4.63;;;0.75;;
66927;SDS011;59882;45.624;11.698;2022-08-19T12:54:23;4.90;;;0.73;;
66927;SDS011;59882;45.624;11.698;2022-08-19T12:56:48;4.75;;;1.08;;
66927;SDS011;59882;45.624;11.698;2022-08-19T12:59:14;4.33;;;0.97;;
66927;SDS011;59882;45.624;11.698;2022-08-19T13:01:43;6.03;;;0.88;;
66927;SDS011;59882;45.624;11.698;2022-08-19T13:04:09;5.28;;;1.30;;
66927;SDS011;59882;45.624;11.698;2022-08-19T13:06:36;4.15;;;1.00;;
66927;SDS011;59882;45.624;11.698;2022-08-19T13:09:02;7.00;;;1.52;;
66927;SDS011;59882;45.624;11.698;2022-08-19T13:11:29;10.40;;;1.90;;
66927;SDS011;59882;45.624;11.698;2022-08-19T13:13:57;4.57;;;1.50;;
66927;SDS011;59882;45.624;11.698;2022-08-19T13:16:23;5.75;;;1.48;;
66927;SDS011;59882;45.624;11.698;2022-08-19T13:18:49;3.80;;;1.50;;
66927;SDS011;59882;45.624;11.698;2022-08-19T13:21:18;6.10;;;1.85;;
66927;SDS011;59882;45.624;11.698;2022-08-19T13:23:45;4.80;;;1.70;;
66927;SDS011;59882;45.624;11.698;2022-08-19T13:26:12;4.70;;;1.60;;
66927;SDS011;59882;45.624;11.698;2022-08-19T13:28:38;4.45;;;1.60;;
66927;SDS011;59882;45.624;11.698;2022-08-19T13:31:23;4.33;;;1.90;;
66927;SDS011;59882;45.624;11.698;2022-08-19T13:34:09;5.70;;;2.08;;
66927;SDS011;59882;45.624;11.698;2022-08-19T13:36:36;5.72;;;2.50;;
66927;SDS011;59882;45.624;11.698;2022-08-19T13:39:03;5.22;;;2.58;;
66927;SDS011;59882;45.624;11.698;2022-08-19T13:41:29;5.05;;;2.50;;
66927;SDS011;59882;45.624;11.698;2022-08-19T13:43:55;3.70;;;1.92;;
66927;SDS011;59882;45.624;11.698;2022-08-19T13:46:21;5.25;;;2.63;;
66927;SDS011;59882;45.624;11.698;2022-08-19T13:48:47;7.07;;;2.77;;
66927;SDS011;59882;45.624;11.698;2022-08-19T13:51:14;5.30;;;2.42;;
66927;SDS011;59882;45.624;11.698;2022-08-19T13:53:41;5.43;;;2.40;;
66927;SDS011;59882;45.624;11.698;2022-08-19T13:56:09;6.07;;;2.90;;
66927;SDS011;59882;45.624;11.698;2022-08-19T13:58:37;5.78;;;2.63;;
66927;SDS011;59882;45.624;11.698;2022-08-19T14:01:04;4.07;;;2.55;;
66927;SDS011;59882;45.624;11.698;2022-08-19T14:03:31;4.28;;;2.80;;
66927;SDS011;59882;45.624;11.698;2022-08-19T14:05:57;5.45;;;2.70;;
66927;SDS011;59882;45.624;11.698;2022-08-19T14:08:23;6.25;;;2.45;;
66927;SDS011;59882;45.624;11.698;2022-08-19T14:10:50;5.65;;;2.20;;
66927;SDS011;59882;45.624;11.698;2022-08-19T14:13:17;4.55;;;2.17;;
66927;SDS011;59882;45.624;11.698;2022-08-19T14:15:45;5.00;;;2.42;;
66927;SDS011;59882;45.624;11.698;2022-08-19T14:18:12;5.22;;;2.50;;
66927;SDS011;59882;45.624;11.698;2022-08-19T14:20:38;4.25;;;1.75;;
66927;SDS011;59882;45.624;11.698;2022-08-19T14:23:04;4.47;;;2.22;;
66927;SDS011;59882;45.624;11.698;2022-08-19T14:25:32;5.20;;;2.60;;
66927;SDS011;59882;45.624;11.698;2022-08-19T14:27:59;5.97;;;2.47;;
66927;SDS011;59882;45.624;11.698;2022-08-19T14:30:29;6.20;;;2.33;;
66927;SDS011;59882;45.624;11.698;2022-08-19T14:32:57;6.07;;;2.72;;
66927;SDS011;59882;45.624;11.698;2022-08-19T14:35:25;4.88;;;2.70;;
66927;SDS011;59882;45.624;11.698;2022-08-19T14:37:54;6.00;;;1.95;;
66927;SDS011;59882;45.624;11.698;2022-08-19T14:40:21;3.97;;;1.90;;
66927;SDS011;59882;45.624;11.698;2022-08-19T14:42:54;4.35;;;2.60;;
66927;SDS011;59882;45.624;11.698;2022-08-19T14:45:24;6.05;;;2.58;;
66927;SDS011;59882;45.624;11.698;2022-08-19T14:47:51;8.13;;;2.83;;
66927;SDS011;59882;45.624;11.698;2022-08-19T14:50:17;4.32;;;2.05;;